Time;durP1;ratioP1;P1;durP2;ratioP2;P2;SDS_P1;SDS_P2;PMS_P1;PMS_P2;Temp;Humidity;BMP_temperature;BMP_pressure;BME280_temperature;BME280_humidity;BME280_pressure;Samples;Min_cycle;Max_cycle;Signal;HPM_P1;HPM_P2
2023/03/01 00:00:08;;;;;;;;;;;;;;;0.40;59.49;100810.00;1088428;47;19943;-83
2023/03/01 00:01:12;;;;;;;;;;;;;;;0.35;59.69;100819.88;1088379;54;19966;-82
2023/03/01 00:04:07;;;;;;;;;;;;;;;0.34;59.83;100818.16;1087830;54;19949;-81
2023/03/01 00:05:31;;;;;;;;;;;;;;;0.28;59.60;100814.00;1087701;54;19994;-82
2023/03/01 00:09:49;;;;;;;;;;;;;;;0.26;60.00;100810.56;1087190;54;19939;-81
2023/03/01 00:12:57;;;;;;;;;;;;;;;0.27;59.77;100811.44;1087755;54;19974;-81
2023/03/01 00:20:28;;;;;;;;;;;;;;;0.23;60.03;100808.06;1087686;54;19950;-81
2023/03/01 00:22:16;;;;;;;;;;;;;;;0.25;60.11;100805.38;1087430;46;19949;-81
2023/03/01 00:23:18;;;;;;;;;;;;;;;0.23;60.10;100810.69;1087093;54;19943;-82
2023/03/01 00:24:22;;;;;;;;;;;;;;;0.22;60.26;100808.09;1087449;39;20183;-80
2023/03/01 00:25:23;;;;;;;;;;;;;;;0.21;60.23;100806.38;1087122;54;19942;-80
2023/03/01 00:26:27;;;;;;;;;;;;;;;0.19;60.25;100806.47;1087344;54;19946;-80
2023/03/01 00:27:28;;;;;;;;;;;;;;;0.22;60.12;100808.09;1087585;54;20011;-83
2023/03/01 00:28:33;;;;;;;;;;;;;;;0.18;60.24;100806.53;1087616;54;19946;-81
2023/03/01 00:29:34;;;;;;;;;;;;;;;0.21;60.14;100807.25;1087600;54;19942;-81
2023/03/01 00:30:38;;;;;;;;;;;;;;;0.21;59.92;100806.38;1087535;54;20030;-80
2023/03/01 00:31:39;;;;;;;;;;;;;;;0.15;60.16;100810.09;1087543;54;19942;-80
2023/03/01 00:32:43;;;;;;;;;;;;;;;0.19;60.39;100814.34;1087564;54;19942;-80
2023/03/01 00:33:45;;;;;;;;;;;;;;;0.16;60.16;100809.19;1087549;54;19943;-80
2023/03/01 00:34:53;;;;;;;;;;;;;;;0.15;60.27;100818.00;1087553;54;19943;-80
2023/03/01 00:35:57;;;;;;;;;;;;;;;0.16;60.21;100803.94;1087507;54;20006;-80
2023/03/01 00:37:05;;;;;;;;;;;;;;;0.12;60.36;100810.25;1087605;54;19973;-80
2023/03/01 00:38:06;;;;;;;;;;;;;;;0.17;60.20;100810.91;1087523;54;19943;-79
2023/03/01 00:39:13;;;;;;;;;;;;;;;0.12;60.40;100811.09;1087552;54;19942;-79
2023/03/01 00:43:37;;;;;;;;;;;;;;;0.09;60.41;100811.22;1087256;54;19958;-80
2023/03/01 00:44:54;;;;;;;;;;;;;;;0.09;60.71;100819.13;1087150;54;19942;-80
2023/03/01 00:45:56;;;;;;;;;;;;;;;0.09;60.59;100819.13;1087411;54;20007;-79
2023/03/01 00:46:59;;;;;;;;;;;;;;;0.13;60.53;100825.97;1087518;54;19991;-83
2023/03/01 00:48:00;;;;;;;;;;;;;;;0.10;60.66;100818.19;1087835;46;19942;-81
2023/03/01 00:49:04;;;;;;;;;;;;;;;0.05;60.68;100827.19;1087492;54;19949;-80
2023/03/01 00:50:06;;;;;;;;;;;;;;;0.03;60.70;100824.59;1087890;46;19942;-81
2023/03/01 00:51:14;;;;;;;;;;;;;;;0.04;60.97;100823.69;1087531;54;19938;-82
2023/03/01 00:52:18;;;;;;;;;;;;;;;0.04;61.01;100820.22;1087573;54;19955;-80
2023/03/01 00:53:19;;;;;;;;;;;;;;;0.04;60.89;100828.94;1087452;54;19943;-80
2023/03/01 00:54:23;;;;;;;;;;;;;;;0.02;60.85;100820.25;1087621;54;19949;-82
2023/03/01 00:55:24;;;;;;;;;;;;;;;0.02;61.10;100827.28;1087759;46;19950;-81
2023/03/01 00:56:28;;;;;;;;;;;;;;;0.00;60.92;100819.47;1087516;54;20014;-81
2023/03/01 00:57:29;;;;;;;;;;;;;;;0.00;61.27;100830.00;1087528;54;19950;-79
2023/03/01 00:58:33;;;;;;;;;;;;;;;0.00;61.23;100830.00;1087554;54;20009;-82
2023/03/01 00:59:34;;;;;;;;;;;;;;;-0.02;61.16;100822.13;1087530;54;19954;-80
2023/03/01 01:00:38;;;;;;;;;;;;;;;-0.02;61.14;100826.56;1087593;47;19938;-82
2023/03/01 01:01:39;;;;;;;;;;;;;;;-0.04;61.39;100817.84;1087838;46;19943;-80
2023/03/01 01:02:43;;;;;;;;;;;;;;;-0.04;61.55;100817.84;1087599;54;19938;-80
2023/03/01 01:03:45;;;;;;;;;;;;;;;-0.03;61.42;100811.69;1087549;54;19934;-81
2023/03/01 01:04:49;;;;;;;;;;;;;;;0.00;61.51;100814.22;1087485;54;19949;-82
2023/03/01 01:05:50;;;;;;;;;;;;;;;-0.01;61.60;100813.34;1087572;54;19942;-80
2023/03/01 01:06:56;;;;;;;;;;;;;;;-0.03;61.65;100815.16;1087583;54;19954;-82
2023/03/01 01:07:57;;;;;;;;;;;;;;;-0.08;61.87;100803.09;1087608;54;19949;-80
2023/03/01 01:09:01;;;;;;;;;;;;;;;-0.04;61.95;100807.34;1087903;46;20023;-83
2023/03/01 01:10:03;;;;;;;;;;;;;;;-0.07;62.06;100816.22;1087450;54;20241;-82
2023/03/01 01:11:06;;;;;;;;;;;;;;;-0.08;62.02;100811.00;1087526;54;19943;-80
2023/03/01 01:12:08;;;;;;;;;;;;;;;-0.11;62.30;100806.72;1087605;54;19939;-80
2023/03/01 01:13:12;;;;;;;;;;;;;;;-0.04;62.05;100807.34;1087570;54;19938;-80
2023/03/01 01:14:16;;;;;;;;;;;;;;;0.01;61.95;100804.53;1087537;54;19949;-82
2023/03/01 01:15:17;;;;;;;;;;;;;;;-0.06;62.08;100810.03;1088217;46;19949;-78
2023/03/01 01:16:23;;;;;;;;;;;;;;;-0.03;61.92;100814.31;1087530;54;20018;-81
2023/03/01 01:17:24;;;;;;;;;;;;;;;-0.03;62.02;100809.91;1089532;39;20250;-81
2023/03/01 01:18:28;;;;;;;;;;;;;;;-0.05;62.05;100816.97;1088405;46;19976;-81
2023/03/01 01:19:29;;;;;;;;;;;;;;;-0.06;62.33;100817.06;1087468;54;19942;-81
2023/03/01 01:20:33;;;;;;;;;;;;;;;-0.12;62.24;100810.25;1087536;54;20714;-80
2023/03/01 01:21:36;;;;;;;;;;;;;;;-0.13;62.40;100811.16;1087796;46;19943;-80
2023/03/01 01:22:42;;;;;;;;;;;;;;;-0.12;62.33;100806.78;1087548;54;19943;-80
2023/03/01 01:23:44;;;;;;;;;;;;;;;-0.14;62.36;100803.34;1087605;54;19953;-81
2023/03/01 01:24:48;;;;;;;;;;;;;;;-0.16;62.60;100803.41;1088415;46;19923;-83
2023/03/01 01:25:49;;;;;;;;;;;;;;;-0.15;62.37;100805.13;1090728;46;19927;-84
2023/03/01 01:26:53;;;;;;;;;;;;;;;-0.20;62.68;100801.78;1093605;46;19938;-83
2023/03/01 01:27:54;;;;;;;;;;;;;;;-0.17;62.42;100810.41;1088611;54;19923;-84
2023/03/01 01:28:59;;;;;;;;;;;;;;;-0.21;62.76;100807.97;1088545;54;19943;-82
2023/03/01 01:34:41;;;;;;;;;;;;;;;-0.28;63.08;100804.69;1088066;54;19942;-81
2023/03/01 01:39:00;;;;;;;;;;;;;;;-0.37;63.24;100795.41;1088134;54;19938;-83
2023/03/01 01:40:37;;;;;;;;;;;;;;;-0.32;63.13;100798.69;1088147;54;19938;-81
2023/03/01 01:41:51;;;;;;;;;;;;;;;-0.34;63.20;100799.69;1088024;54;19942;-84
2023/03/01 01:42:52;;;;;;;;;;;;;;;-0.31;62.84;100778.56;1088787;46;19942;-82
2023/03/01 01:44:11;;;;;;;;;;;;;;;-0.36;63.07;100780.47;1087900;54;20008;-83
2023/03/01 01:45:25;;;;;;;;;;;;;;;-0.28;62.87;100777.56;1088257;46;19949;-84
2023/03/01 01:46:31;;;;;;;;;;;;;;;-0.34;63.01;100771.66;1088100;54;19927;-82
2023/03/01 01:47:32;;;;;;;;;;;;;;;-0.36;62.95;100769.97;1088178;54;19942;-83
2023/03/01 01:48:42;;;;;;;;;;;;;;;-0.37;62.99;100778.75;1088296;54;19927;-83
2023/03/01 01:49:45;;;;;;;;;;;;;;;-0.26;62.96;100771.34;1088321;54;19942;-84
2023/03/01 01:50:53;;;;;;;;;;;;;;;-0.27;62.99;100768.78;1088272;54;19958;-82
2023/03/01 01:51:57;;;;;;;;;;;;;;;-0.28;62.79;100767.91;1088388;54;19942;-82
2023/03/01 01:53:01;;;;;;;;;;;;;;;-0.27;62.88;100766.16;1088363;54;19934;-85
2023/03/01 01:54:08;;;;;;;;;;;;;;;-0.25;62.71;100765.19;1088310;54;19943;-83
2023/03/01 01:55:14;;;;;;;;;;;;;;;-0.23;62.58;100759.84;1088326;54;19927;-82
2023/03/01 01:56:17;;;;;;;;;;;;;;;-0.24;62.69;100764.25;1089547;46;19965;-83
2023/03/01 01:57:22;;;;;;;;;;;;;;;-0.26;62.76;100763.47;1089824;39;20800;-83
2023/03/01 01:58:24;;;;;;;;;;;;;;;-0.20;62.81;100757.13;1088382;54;19974;-83
2023/03/01 01:59:31;;;;;;;;;;;;;;;-0.18;62.69;100758.75;1088366;54;19927;-82
2023/03/01 02:00:32;;;;;;;;;;;;;;;-0.23;62.63;100759.84;1092698;46;19961;-83
2023/03/01 02:01:36;;;;;;;;;;;;;;;-0.24;62.63;100761.63;1088290;54;19926;-82
2023/03/01 02:02:38;;;;;;;;;;;;;;;-0.19;62.34;100757.06;1088513;54;19934;-82
2023/03/01 02:03:44;;;;;;;;;;;;;;;-0.21;62.59;100747.50;1088973;46;19990;-83
2023/03/01 02:04:46;;;;;;;;;;;;;;;-0.21;62.57;100748.38;1091696;46;19938;-84
2023/03/01 02:05:52;;;;;;;;;;;;;;;-0.27;62.78;100753.84;1090403;46;19957;-81
2023/03/01 02:06:56;;;;;;;;;;;;;;;-0.18;62.80;100743.00;1088280;54;19957;-84
2023/03/01 02:08:00;;;;;;;;;;;;;;;-0.17;62.57;100741.25;1088326;54;19943;-83
2023/03/01 02:09:07;;;;;;;;;;;;;;;-0.18;62.45;100747.41;1090121;46;19923;-84
2023/03/01 02:10:14;;;;;;;;;;;;;;;-0.18;62.68;100748.25;1088268;54;19941;-82
2023/03/01 02:11:17;;;;;;;;;;;;;;;-0.17;62.52;100757.00;1088412;54;19931;-83
2023/03/01 02:12:22;;;;;;;;;;;;;;;-0.20;62.39;100744.84;1088395;54;19990;-82
2023/03/01 02:13:23;;;;;;;;;;;;;;;-0.23;62.75;100744.09;1088376;54;19942;-83
2023/03/01 02:14:27;;;;;;;;;;;;;;;-0.23;62.71;100742.34;1088391;54;19927;-83
2023/03/01 02:15:31;;;;;;;;;;;;;;;-0.27;62.61;100738.09;1088381;54;19935;-82
2023/03/01 02:16:35;;;;;;;;;;;;;;;-0.32;62.93;100734.78;1088776;46;19989;-83
2023/03/01 02:17:37;;;;;;;;;;;;;;;-0.35;63.08;100737.53;1088439;54;19939;-82
2023/03/01 02:18:42;;;;;;;;;;;;;;;-0.39;63.17;100743.84;1088439;54;19934;-83
2023/03/01 02:19:49;;;;;;;;;;;;;;;-0.40;63.29;100734.22;1088881;46;19943;-82
2023/03/01 02:21:05;;;;;;;;;;;;;;;-0.36;63.14;100734.06;1087862;39;20754;-79
2023/03/01 02:22:12;;;;;;;;;;;;;;;-0.36;63.24;100726.19;1087078;54;19942;-81
2023/03/01 02:23:16;;;;;;;;;;;;;;;-0.48;63.34;100735.38;1087044;54;20631;-81
2023/03/01 02:24:22;;;;;;;;;;;;;;;-0.50;63.45;100731.94;1086950;54;19974;-80
2023/03/01 02:25:33;;;;;;;;;;;;;;;-0.46;63.50;100732.69;1086735;54;20029;-79
2023/03/01 02:26:37;;;;;;;;;;;;;;;-0.48;63.71;100726.63;1086760;54;20519;-79
2023/03/01 02:27:43;;;;;;;;;;;;;;;-0.52;63.72;100733.78;1086729;54;19950;-80
2023/03/01 02:28:47;;;;;;;;;;;;;;;-0.46;63.60;100727.44;1086750;54;20554;-80
2023/03/01 02:29:51;;;;;;;;;;;;;;;-0.44;63.49;100725.63;1086835;54;19966;-80
2023/03/01 02:32:11;;;;;;;;;;;;;;;-0.48;63.61;100719.63;1086653;54;19974;-80
2023/03/01 02:33:15;;;;;;;;;;;;;;;-0.40;63.47;100726.34;1086864;54;19951;-80
2023/03/01 02:35:52;;;;;;;;;;;;;;;-0.38;63.61;100724.53;1088506;54;19931;-83
2023/03/01 02:38:01;;;;;;;;;;;;;;;-0.46;63.79;100722.19;1088512;54;19922;-82
2023/03/01 02:39:04;;;;;;;;;;;;;;;-0.41;63.63;100708.88;1092431;46;19977;-83
2023/03/01 02:40:13;;;;;;;;;;;;;;;-0.41;63.46;100708.88;1090196;46;19934;-83
2023/03/01 02:41:16;;;;;;;;;;;;;;;-0.44;63.46;100703.72;1088378;54;19942;-83
2023/03/01 02:42:23;;;;;;;;;;;;;;;-0.42;63.78;100715.03;1088367;54;20637;-83
2023/03/01 02:43:27;;;;;;;;;;;;;;;-0.40;63.63;100710.59;1088459;54;20621;-84
2023/03/01 02:45:37;;;;;;;;;;;;;;;-0.35;63.34;100703.38;1088270;54;19942;-83
2023/03/01 02:46:56;;;;;;;;;;;;;;;-0.36;63.29;100704.28;1089013;46;19965;-83
2023/03/01 02:48:00;;;;;;;;;;;;;;;-0.36;63.45;100707.78;1088637;54;19939;-81
2023/03/01 02:49:17;;;;;;;;;;;;;;;-0.37;63.53;100702.56;1088758;47;19923;-82
2023/03/01 02:50:28;;;;;;;;;;;;;;;-0.38;63.41;100706.97;1088649;54;19923;-83
2023/03/01 02:51:39;;;;;;;;;;;;;;;-0.37;63.52;100699.94;1088270;54;19929;-81
2023/03/01 02:52:48;;;;;;;;;;;;;;;-0.39;63.35;100707.88;1091977;46;19930;-82
2023/03/01 02:53:55;;;;;;;;;;;;;;;-0.42;63.45;100708.00;1089892;46;19926;-81
2023/03/01 02:55:01;;;;;;;;;;;;;;;-0.41;63.53;100703.63;1088450;54;19938;-81
2023/03/01 02:56:03;;;;;;;;;;;;;;;-0.43;63.54;100698.44;1090622;46;19945;-81
2023/03/01 02:57:08;;;;;;;;;;;;;;;-0.43;63.61;100700.19;1087930;54;19942;-82
2023/03/01 02:58:09;;;;;;;;;;;;;;;-0.40;63.76;100700.91;1088112;54;19927;-84
2023/03/01 02:59:16;;;;;;;;;;;;;;;-0.45;63.65;100699.38;1087955;54;19954;-82
2023/03/01 03:00:22;;;;;;;;;;;;;;;-0.47;63.71;100695.03;1087929;54;19943;-82
2023/03/01 03:01:36;;;;;;;;;;;;;;;-0.53;63.74;100695.28;1087920;54;20240;-83
2023/03/01 03:02:39;;;;;;;;;;;;;;;-0.54;63.85;100698.81;1087714;54;20049;-82
2023/03/01 03:04:08;;;;;;;;;;;;;;;-0.58;64.02;100699.88;1087802;54;19951;-81
2023/03/01 03:05:16;;;;;;;;;;;;;;;-0.60;64.16;100700.81;1088461;54;19965;-83
2023/03/01 03:11:40;;;;;;;;;;;;;;;-0.64;64.24;100695.69;1081971;54;20909;-82
2023/03/01 03:12:42;;;;;;;;;;;;;;;-0.59;64.28;100700.78;1088161;54;19961;-83
2023/03/01 03:13:47;;;;;;;;;;;;;;;-0.53;64.11;100689.19;1088074;54;19950;-83
2023/03/01 03:14:48;;;;;;;;;;;;;;;-0.51;63.88;100698.72;1088252;54;19942;-83
2023/03/01 03:15:52;;;;;;;;;;;;;;;-0.50;63.98;100695.19;1088296;54;19942;-82
2023/03/01 03:16:56;;;;;;;;;;;;;;;-0.58;64.00;100691.97;1088307;54;19949;-84
2023/03/01 03:18:01;;;;;;;;;;;;;;;-0.61;64.18;100699.97;1088158;54;19950;-83
2023/03/01 03:19:04;;;;;;;;;;;;;;;-0.57;64.08;100696.31;1088137;54;20773;-82
2023/03/01 03:20:12;;;;;;;;;;;;;;;-0.61;64.19;100697.34;1088550;47;19942;-83
2023/03/01 03:21:13;;;;;;;;;;;;;;;-0.65;64.49;100695.72;1088010;54;19942;-82
2023/03/01 03:22:17;;;;;;;;;;;;;;;-0.62;64.41;100693.00;1087946;54;19946;-82
2023/03/01 03:23:18;;;;;;;;;;;;;;;-0.60;64.35;100688.56;1087773;54;19934;-82
2023/03/01 03:24:23;;;;;;;;;;;;;;;-0.56;64.23;100699.78;1087820;54;20010;-82
2023/03/01 03:25:25;;;;;;;;;;;;;;;-0.54;63.92;100696.19;1087843;54;19943;-81
2023/03/01 03:26:29;;;;;;;;;;;;;;;-0.52;63.89;100696.16;1087702;54;19943;-81
2023/03/01 03:27:31;;;;;;;;;;;;;;;-0.55;64.09;100696.25;1087814;54;19934;-81
2023/03/01 03:28:39;;;;;;;;;;;;;;;-0.56;64.17;100698.00;1087940;54;20005;-82
2023/03/01 03:29:43;;;;;;;;;;;;;;;-0.50;64.02;100703.06;1088756;46;19943;-83
2023/03/01 03:30:47;;;;;;;;;;;;;;;-0.48;63.74;100693.34;1091222;46;19926;-83
2023/03/01 03:31:52;;;;;;;;;;;;;;;-0.40;63.71;100686.94;1087956;54;19938;-82
2023/03/01 03:33:00;;;;;;;;;;;;;;;-0.36;63.41;100692.03;1087973;54;19955;-83
2023/03/01 03:34:01;;;;;;;;;;;;;;;-0.38;63.58;100695.63;1087952;54;19939;-82
2023/03/01 03:35:09;;;;;;;;;;;;;;;-0.34;63.41;100694.56;1087921;54;19949;-82
2023/03/01 03:36:17;;;;;;;;;;;;;;;-0.40;63.41;100692.19;1096006;39;20734;-82
2023/03/01 03:38:37;;;;;;;;;;;;;;;-0.44;63.64;100690.59;1088288;54;19931;-84
2023/03/01 03:39:38;;;;;;;;;;;;;;;-0.49;63.59;100685.50;1088440;54;19927;-82
2023/03/01 03:43:15;;;;;;;;;;;;;;;-0.50;63.71;100675.91;1088081;54;19946;-83
2023/03/01 03:45:13;;;;;;;;;;;;;;;-0.50;63.90;100676.78;1088065;54;19942;-83
2023/03/01 03:46:29;;;;;;;;;;;;;;;-0.53;63.91;100676.03;1087760;54;19938;-83
2023/03/01 03:47:32;;;;;;;;;;;;;;;-0.55;63.89;100668.19;1091242;47;19939;-83
2023/03/01 03:48:39;;;;;;;;;;;;;;;-0.54;63.95;100677.81;1087924;54;19950;-83
2023/03/01 03:49:41;;;;;;;;;;;;;;;-0.52;63.85;100664.63;1088593;47;19999;-81
2023/03/01 03:50:50;;;;;;;;;;;;;;;-0.56;63.89;100669.13;1087865;54;19945;-82
2023/03/01 03:51:51;;;;;;;;;;;;;;;-0.53;64.08;100658.50;1088481;47;19927;-84
2023/03/01 03:52:55;;;;;;;;;;;;;;;-0.55;63.92;100670.00;1087915;54;19942;-81
2023/03/01 03:53:59;;;;;;;;;;;;;;;-0.57;64.11;100666.56;1088055;54;19942;-81
2023/03/01 03:55:00;;;;;;;;;;;;;;;-0.52;64.09;100665.47;1088149;54;19941;-83
2023/03/01 03:59:22;;;;;;;;;;;;;;;-0.59;64.21;100657.88;1087931;54;19989;-85
2023/03/01 04:00:23;;;;;;;;;;;;;;;-0.63;64.15;100657.13;1088867;39;20720;-84
2023/03/01 04:01:27;;;;;;;;;;;;;;;-0.63;64.38;100658.00;1088175;54;19942;-82
2023/03/01 04:02:28;;;;;;;;;;;;;;;-0.58;64.33;100665.72;1088495;39;20530;-81
2023/03/01 04:03:34;;;;;;;;;;;;;;;-0.67;64.17;100656.41;1088006;54;19927;-83
2023/03/01 04:04:38;;;;;;;;;;;;;;;-0.60;64.30;100662.28;1089597;39;20575;-83
2023/03/01 04:05:43;;;;;;;;;;;;;;;-0.51;64.04;100651.44;1092242;47;19945;-82
2023/03/01 04:07:08;;;;;;;;;;;;;;;-0.59;64.09;100652.63;1088165;54;19966;-82
2023/03/01 04:08:15;;;;;;;;;;;;;;;-0.68;64.46;100656.47;1088034;54;19942;-81
2023/03/01 04:09:23;;;;;;;;;;;;;;;-0.73;64.55;100659.28;1088927;47;19985;-81
2023/03/01 04:10:28;;;;;;;;;;;;;;;-0.80;64.81;100656.00;1088358;54;19954;-82
2023/03/01 04:22:19;;;;;;;;;;;;;;;-0.83;64.61;100653.50;1088182;54;19977;-82
2023/03/01 04:23:21;;;;;;;;;;;;;;;-0.85;64.95;100655.31;1088216;54;19934;-85
2023/03/01 04:24:24;;;;;;;;;;;;;;;-0.84;65.06;100657.03;1092386;47;19963;-84
2023/03/01 04:26:31;;;;;;;;;;;;;;;-0.95;65.27;100662.69;1088440;54;19953;-82
2023/03/01 04:27:36;;;;;;;;;;;;;;;-0.99;65.31;100665.47;1088201;54;19950;-81
2023/03/01 04:28:42;;;;;;;;;;;;;;;-1.02;65.44;100660.31;1088445;47;19946;-83
2023/03/01 04:29:44;;;;;;;;;;;;;;;-1.00;65.63;100661.13;1090235;47;19955;-82
2023/03/01 04:30:48;;;;;;;;;;;;;;;-1.01;65.68;100660.28;1088208;54;19935;-84
2023/03/01 04:35:55;;;;;;;;;;;;;;;-1.06;65.90;100670.06;1087993;54;19978;-81
2023/03/01 04:36:56;;;;;;;;;;;;;;;-1.07;65.99;100670.16;1087680;54;19947;-83
2023/03/01 04:38:03;;;;;;;;;;;;;;;-1.01;65.62;100660.28;1092430;47;19945;-83
2023/03/01 04:39:11;;;;;;;;;;;;;;;-1.00;65.83;100672.50;1087574;54;19927;-81
2023/03/01 04:40:16;;;;;;;;;;;;;;;-1.00;65.65;100667.25;1087793;54;19939;-84
2023/03/01 04:41:19;;;;;;;;;;;;;;;-0.98;65.83;100661.94;1088004;54;19939;-82
2023/03/01 04:42:29;;;;;;;;;;;;;;;-0.97;65.67;100661.03;1087790;54;19951;-83
2023/03/01 04:43:30;;;;;;;;;;;;;;;-0.95;65.75;100661.84;1087977;54;19938;-82
2023/03/01 04:44:34;;;;;;;;;;;;;;;-1.01;65.62;100662.91;1087948;54;19943;-83
2023/03/01 04:46:41;;;;;;;;;;;;;;;-0.97;65.80;100664.50;1087831;54;19939;-81
2023/03/01 04:47:44;;;;;;;;;;;;;;;-0.99;65.67;100660.22;1088248;54;19942;-84
2023/03/01 04:53:46;;;;;;;;;;;;;;;-0.93;65.34;100665.22;1087801;54;19971;-83
2023/03/01 04:54:49;;;;;;;;;;;;;;;-0.96;65.36;100666.22;1088028;54;19950;-81
2023/03/01 04:55:53;;;;;;;;;;;;;;;-0.96;65.32;100671.47;1088037;54;19942;-82
2023/03/01 04:56:55;;;;;;;;;;;;;;;-1.01;65.41;100677.78;1087911;54;19965;-80
2023/03/01 04:57:59;;;;;;;;;;;;;;;-1.04;65.40;100672.66;1088218;54;20634;-84
2023/03/01 04:59:00;;;;;;;;;;;;;;;-1.08;65.59;100673.69;1088399;54;19934;-85
2023/03/01 05:08:59;;;;;;;;;;;;;;;-1.19;66.01;100674.91;1088238;39;20263;-83
2023/03/01 05:10:04;;;;;;;;;;;;;;;-1.15;66.05;100675.66;1088260;54;19998;-84
2023/03/01 05:11:08;;;;;;;;;;;;;;;-1.22;65.94;100667.13;1089812;46;19966;-82
2023/03/01 05:12:09;;;;;;;;;;;;;;;-1.22;66.04;100669.75;1088135;54;19961;-83
2023/03/01 05:14:52;;;;;;;;;;;;;;;-1.22;66.31;100672.38;1088253;54;19948;-82
2023/03/01 05:17:53;;;;;;;;;;;;;;;-1.28;66.19;100677.84;1088202;54;19931;-83
2023/03/01 05:18:55;;;;;;;;;;;;;;;-1.28;66.58;100680.47;1087929;54;19931;-82
2023/03/01 05:19:59;;;;;;;;;;;;;;;-1.20;66.15;100677.59;1087859;54;19942;-81
2023/03/01 05:22:27;;;;;;;;;;;;;;;-1.19;66.33;100669.66;1087909;54;19994;-84
2023/03/01 05:23:28;;;;;;;;;;;;;;;-1.14;66.04;100673.00;1087938;54;19943;-82
2023/03/01 05:24:32;;;;;;;;;;;;;;;-1.18;65.97;100666.13;1087885;54;19934;-82
2023/03/01 05:25:40;;;;;;;;;;;;;;;-1.21;65.99;100666.22;1089244;46;19946;-81
2023/03/01 05:30:15;;;;;;;;;;;;;;;-1.15;65.83;100671.28;1087581;54;19947;-81
2023/03/01 05:31:16;;;;;;;;;;;;;;;-1.21;66.04;100668.84;1087678;54;20700;-79
2023/03/01 05:32:20;;;;;;;;;;;;;;;-1.23;65.98;100673.31;1087579;54;19972;-81
2023/03/01 05:33:22;;;;;;;;;;;;;;;-1.23;66.23;100667.19;1087606;54;19943;-80
2023/03/01 05:34:27;;;;;;;;;;;;;;;-1.21;66.03;100666.22;1087595;47;19938;-80
2023/03/01 05:35:29;;;;;;;;;;;;;;;-1.21;66.02;100671.47;1087668;54;19939;-81
2023/03/01 05:36:33;;;;;;;;;;;;;;;-1.26;65.98;100669.03;1087650;54;19943;-80
2023/03/01 05:37:35;;;;;;;;;;;;;;;-1.29;66.04;100663.91;1087642;54;19942;-80
2023/03/01 05:38:39;;;;;;;;;;;;;;;-1.29;66.04;100670.91;1087795;46;19949;-81
2023/03/01 05:39:41;;;;;;;;;;;;;;;-1.35;66.28;100668.50;1089276;39;20178;-81
2023/03/01 05:40:48;;;;;;;;;;;;;;;-1.35;66.37;100665.88;1087740;54;19985;-82
2023/03/01 05:41:52;;;;;;;;;;;;;;;-1.34;66.47;100667.59;1087651;54;19960;-81
2023/03/01 05:42:57;;;;;;;;;;;;;;;-1.35;66.49;100671.97;1087731;54;19943;-80
2023/03/01 05:43:58;;;;;;;;;;;;;;;-1.34;66.43;100668.44;1087757;54;19957;-81
2023/03/01 05:45:02;;;;;;;;;;;;;;;-1.35;66.50;100668.50;1087636;54;19942;-81
2023/03/01 05:46:06;;;;;;;;;;;;;;;-1.34;66.48;100670.22;1087650;54;19943;-81
2023/03/01 05:47:12;;;;;;;;;;;;;;;-1.37;66.50;100667.69;1087516;54;19939;-80
2023/03/01 05:48:16;;;;;;;;;;;;;;;-1.37;66.47;100659.81;1087732;54;19943;-80
2023/03/01 05:49:17;;;;;;;;;;;;;;;-1.41;66.32;100670.41;1087877;54;19973;-81
2023/03/01 05:50:22;;;;;;;;;;;;;;;-1.43;66.46;100667.00;1088730;46;19994;-81
2023/03/01 05:51:24;;;;;;;;;;;;;;;-1.42;66.34;100668.69;1087755;54;19943;-85
2023/03/01 05:52:28;;;;;;;;;;;;;;;-1.43;66.47;100668.75;1087748;54;19986;-81
2023/03/01 05:53:29;;;;;;;;;;;;;;;-1.44;66.74;100670.53;1087879;54;19943;-81
2023/03/01 05:54:33;;;;;;;;;;;;;;;-1.44;66.83;100669.66;1089051;46;19938;-81
2023/03/01 05:55:35;;;;;;;;;;;;;;;-1.41;66.55;100667.78;1087668;54;19954;-81
2023/03/01 05:56:44;;;;;;;;;;;;;;;-1.39;66.44;100666.88;1087817;54;19938;-81
2023/03/01 05:57:47;;;;;;;;;;;;;;;-1.37;66.70;100667.69;1089086;46;19943;-81
2023/03/01 05:58:51;;;;;;;;;;;;;;;-1.43;66.66;100672.25;1087739;54;19942;-81
2023/03/01 05:59:53;;;;;;;;;;;;;;;-1.36;66.56;100672.03;1087644;54;19949;-81
2023/03/01 06:00:57;;;;;;;;;;;;;;;-1.38;66.76;100664.22;1087998;46;19988;-81
2023/03/01 06:01:58;;;;;;;;;;;;;;;-1.38;66.94;100673.84;1087679;54;19965;-81
2023/03/01 06:03:02;;;;;;;;;;;;;;;-1.41;66.82;100667.78;1087784;46;20673;-80
2023/03/01 06:04:04;;;;;;;;;;;;;;;-1.40;66.77;100666.03;1087561;54;20644;-82
2023/03/01 06:05:09;;;;;;;;;;;;;;;-1.38;66.78;100669.47;1087626;54;19941;-81
2023/03/01 06:06:13;;;;;;;;;;;;;;;-1.44;66.77;100665.28;1087494;54;19966;-81
2023/03/01 06:07:17;;;;;;;;;;;;;;;-1.41;67.35;100673.03;1087660;54;19942;-82
2023/03/01 06:08:21;;;;;;;;;;;;;;;-1.36;66.79;100666.78;1087693;54;20006;-81
2023/03/01 06:09:23;;;;;;;;;;;;;;;-1.36;66.74;100680.75;1087540;54;20006;-80
2023/03/01 06:10:26;;;;;;;;;;;;;;;-1.32;66.79;100678.91;1087643;54;19943;-81
2023/03/01 06:11:28;;;;;;;;;;;;;;;-1.35;66.61;100682.44;1087597;54;19942;-81
2023/03/01 06:12:36;;;;;;;;;;;;;;;-1.31;66.83;100676.22;1087527;54;19954;-81
2023/03/01 06:13:37;;;;;;;;;;;;;;;-1.30;66.78;100677.03;1087575;54;19950;-81
2023/03/01 06:14:42;;;;;;;;;;;;;;;-1.28;66.36;100678.72;1089018;46;19942;-81
2023/03/01 06:15:51;;;;;;;;;;;;;;;-1.33;66.42;100677.19;1088487;46;19939;-80
2023/03/01 06:16:53;;;;;;;;;;;;;;;-1.31;66.28;100677.97;1088180;46;19950;-83
2023/03/01 06:17:58;;;;;;;;;;;;;;;-1.26;66.49;100665.56;1087468;54;19943;-80
2023/03/01 06:19:02;;;;;;;;;;;;;;;-1.24;66.30;100681.22;1087466;54;19965;-81
2023/03/01 06:20:07;;;;;;;;;;;;;;;-1.31;66.21;100676.22;1088642;46;19942;-79
2023/03/01 06:21:11;;;;;;;;;;;;;;;-1.31;66.21;100678.84;1087598;54;19938;-81
2023/03/01 06:22:13;;;;;;;;;;;;;;;-1.32;66.09;100673.66;1087544;54;19943;-81
2023/03/01 06:23:17;;;;;;;;;;;;;;;-1.37;66.34;100676.41;1087562;54;19942;-80
2023/03/01 06:24:18;;;;;;;;;;;;;;;-1.36;66.22;100672.03;1087720;47;19973;-80
2023/03/01 06:25:27;;;;;;;;;;;;;;;-1.36;66.36;100675.50;1087491;54;19942;-82
2023/03/01 06:26:28;;;;;;;;;;;;;;;-1.36;66.35;100677.28;1087426;54;19943;-80
2023/03/01 06:27:35;;;;;;;;;;;;;;;-1.37;66.18;100686.06;1087582;54;19989;-81
2023/03/01 06:30:05;;;;;;;;;;;;;;;-1.35;66.09;100671.13;1086768;54;19946;-80
2023/03/01 06:31:15;;;;;;;;;;;;;;;-1.32;66.16;100674.50;1087785;46;19942;-80
2023/03/01 06:34:00;;;;;;;;;;;;;;;-1.29;66.01;100670.91;1087469;54;19942;-80
2023/03/01 06:36:40;;;;;;;;;;;;;;;-1.28;65.98;100667.38;1087701;46;19942;-81
2023/03/01 06:37:41;;;;;;;;;;;;;;;-1.27;65.75;100671.72;1088903;46;19946;-81
2023/03/01 06:38:45;;;;;;;;;;;;;;;-1.29;66.08;100663.03;1086777;54;19962;-80
2023/03/01 06:39:46;;;;;;;;;;;;;;;-1.28;65.99;100663.00;1087515;46;19943;-80
2023/03/01 06:40:54;;;;;;;;;;;;;;;-1.23;65.70;100662.81;1087417;54;19957;-81
2023/03/01 06:41:56;;;;;;;;;;;;;;;-1.28;65.92;100660.38;1087564;54;19950;-81
2023/03/01 06:43:02;;;;;;;;;;;;;;;-1.24;65.69;100658.50;1087370;54;20892;-81
2023/03/01 06:44:04;;;;;;;;;;;;;;;-1.26;65.54;100655.06;1087328;54;19942;-80
2023/03/01 06:45:09;;;;;;;;;;;;;;;-1.28;65.55;100649.88;1087440;54;20563;-80
2023/03/01 06:46:12;;;;;;;;;;;;;;;-1.31;65.63;100656.97;1087445;54;19942;-80
2023/03/01 06:47:14;;;;;;;;;;;;;;;-1.26;65.47;100658.53;1087145;54;19942;-80
2023/03/01 06:48:18;;;;;;;;;;;;;;;-1.20;65.51;100653.97;1087477;54;19942;-80
2023/03/01 06:49:19;;;;;;;;;;;;;;;-1.18;65.26;100654.78;1087851;46;19964;-81
2023/03/01 06:50:23;;;;;;;;;;;;;;;-1.19;65.32;100653.91;1087526;54;19988;-80
2023/03/01 06:51:25;;;;;;;;;;;;;;;-1.17;65.35;100652.09;1087343;54;19965;-81
2023/03/01 06:52:29;;;;;;;;;;;;;;;-1.17;65.16;100652.09;1087465;54;20006;-79
2023/03/01 06:53:33;;;;;;;;;;;;;;;-1.14;65.02;100652.00;1087692;47;20011;-81
2023/03/01 06:54:34;;;;;;;;;;;;;;;-1.16;65.31;100656.44;1087605;54;19974;-80
2023/03/01 06:55:37;;;;;;;;;;;;;;;-1.11;64.94;100659.75;1087674;54;19949;-81
2023/03/01 06:56:49;;;;;;;;;;;;;;;-1.14;65.07;100656.38;1089509;46;19942;-81
2023/03/01 06:57:56;;;;;;;;;;;;;;;-1.12;64.79;100649.31;1089969;46;20643;-81
2023/03/01 06:59:00;;;;;;;;;;;;;;;-1.06;65.00;100650.88;1087519;54;19984;-80
2023/03/01 07:00:06;;;;;;;;;;;;;;;-1.03;64.66;100658.59;1088356;46;19965;-82